World of Logs combat log analyzer allows gamers to save, share and analyze their raiding experiences conveniently and thoroughly in the Blizzard MMO World of Warcraft. If you're new here, make sure you check out the tour for a 1 minute introduction. If you have any questions, we're happy to answer them on the forums.

DPS HPS
Odyn
Helya
Guarm
Reports for Thok the Bloodthirsty - statistics
# Date Time Damage DPS Guild Realm
701 11 Sep 2014 05:30 896.55M 2712843.4 Энерджайзер EU-Страж Смерти
702 25 Sep 2014 05:30 863.09M 2611226.5 Halcyon Chapter US-Frostmourne
703 07 Oct 2014 05:30 899.45M 2719662.0 Glendimuss US-Runetotem
704 30 Sep 2014 05:30 861.75M 2605324.0 Kinetic US-Alexstrasza
705 26 Sep 2014 05:30 881.20M 2664113.1 Мейс EU-Свежеватель Душ
706 25 Sep 2014 05:30 862.79M 2606659.9 Это будет легендарно EU-Черный Шрам
707 24 Sep 2014 05:31 877.27M 2650108.6 Dark Deception EU-Draenor
708 02 Oct 2014 05:31 862.04M 2603263.7 INFAMOUS EU-Hyjal
709 02 Oct 2014 05:31 862.04M 2603192.9 INFAMOUS EU-Hyjal
710 09 Sep 2014 05:31 861.31M 2599536.7 Ascension US-Eonar
711 18 Sep 2014 05:31 790.80M 2386725.1 Ancient Nation med Shizno EU-Shattered Hand
712 08 Oct 2014 05:31 818.90M 2469081.3 Skolopendra EU-Пиратская бухта
713 25 Sep 2014 05:31 861.86M 2598589.5 tapki EU-Гордунни
714 20 Aug 2014 05:31 860.42M 2593814.8 Wicked Mojo EU-Garrosh
715 18 Sep 2014 05:31 860.18M 2591688.6 Gigabyte EU-Darksorrow
716 13 Sep 2014 05:31 820.09M 2470537.4 Eommy Best EU-Гордунни
717 24 Sep 2014 05:32 879.19M 2648083.4 Aghanim EU-Ysondre
718 24 Sep 2014 05:32 879.19M 2648043.6 Une Table pour le Maître EU-Ysondre
719 09 Sep 2014 05:32 860.38M 2591012.0 CrystalClear EU-Draenor
720 03 Oct 2014 05:32 863.44M 2600046.7 kA EU-Blackhand
721 08 Oct 2014 05:32 874.58M 2632210.3 Rheu EU-Drak'thul
722 30 Sep 2014 05:32 859.50M 2586817.1 Safety First US-Illidan
723 13 Sep 2014 05:32 890.42M 2677176.9 The Witching Hour US-Azralon
724 24 Sep 2014 05:32 877.31M 2636059.1 MotU EU-Eredar
725 01 Sep 2014 05:32 883.23M 2653571.1 Herp Derp EU-Dun Modr
726 10 Sep 2014 05:32 863.47M 2593960.3 WoLme EU-Sargeras
727 30 Sep 2014 05:33 860.21M 2582958.5 celebrities US-Perenolde
728 09 Oct 2014 05:33 862.65M 2588709.3 INFAMOUS EU-Hyjal
729 07 Oct 2014 05:33 874.38M 2623526.0 Nyansense US-Bleeding Hollow
730 08 Oct 2014 05:33 813.44M 2440205.6 Wreak Havoc EU-Hyjal
731 09 Oct 2014 05:33 862.65M 2587668.8 Kutchiki EU-Hyjal
732 09 Oct 2014 05:33 862.11M 2585959.4 INFAMOUS EU-Hyjal
733 25 Sep 2014 05:33 892.81M 2676882.3 Syrilock EU-Silvermoon
734 30 Sep 2014 05:33 818.09M 2452365.2 Annihilus US-Cenarius
735 24 Sep 2014 05:33 810.42M 2429271.5 Iridium EU-Tarren Mill
736 07 Sep 2014 05:33 888.79M 2663761.8 Do not Disturb EU-Illidan
737 18 Sep 2014 05:34 887.28M 2656142.5 flow EU-Garrosh
738 28 Sep 2014 05:34 803.63M 2405189.2 Divaih's Logs EU-Kazzak
739 09 Oct 2014 05:34 799.49M 2391213.7 The Zoo EU-Magtheridon
740 07 Sep 2014 05:34 865.12M 2585938.2 Forsaken Heroes EU-Dalvengyr
741 22 Sep 2014 05:34 776.08M 2316757.8 хилюйопт EU-Свежеватель Душ
742 23 Sep 2014 05:35 863.69M 2575901.2 Ascent US-Sargeras
743 08 Oct 2014 05:35 860.70M 2566484.7 Мейс EU-Свежеватель Душ
744 24 Sep 2014 05:35 794.49M 2368755.8 O o O EU-Kazzak
745 01 Oct 2014 05:35 858.37M 2556764.9 Audacity US-Barthilas
746 24 Sep 2014 05:36 858.63M 2554789.9 Light's Logs EU-Malfurion
747 01 Oct 2014 05:36 861.97M 2564235.6 Iridescence EU-Thunderhorn
748 24 Sep 2014 05:36 807.67M 2401354.8 yxyxy EU-Подземье
749 01 Oct 2014 05:36 860.39M 2557555.3 The Stylish Few US-Barthilas
750 10 Sep 2014 05:36 854.57M 2539940.8 Down For Life US-Uldaman
751 08 Oct 2014 05:36 874.95M 2600162.7 VQ EU-Sargeras
752 07 Oct 2014 05:36 862.44M 2562701.7 Safety First US-Illidan
753 04 Oct 2014 05:36 820.64M 2438424.9 Kinesis US-Zul'jin
754 07 Sep 2014 05:36 862.91M 2563974.0 Daewyn Logs EU-Blackmoore
755 10 Oct 2014 05:36 889.07M 2639986.1 Coach EU-Kazzak
756 08 Sep 2014 05:36 800.05M 2374646.8 eXample EU-Ravencrest
757 27 Sep 2014 05:37 864.39M 2564641.2 skeds my hero US-Trollbane
758 11 Sep 2014 05:37 860.52M 2552280.6 Better than Life EU-Aszune
759 16 Sep 2014 05:37 868.73M 2576365.3 Safety First US-Illidan
760 01 Oct 2014 05:37 860.39M 2551340.5 Kinetic EU-Frostwolf
761 01 Oct 2014 05:37 860.39M 2551333.0 not Kinetic EU-Frostwolf
762 28 Sep 2014 05:37 861.51M 2554200.2 Ascension EU-Turalyon
763 10 Sep 2014 05:37 889.23M 2635412.7 Outlaw Immortalz EU-Darksorrow
764 08 Sep 2014 05:37 891.99M 2641369.7 EquinoXx EU-Archimonde
765 10 Sep 2014 05:38 863.70M 2555197.8 Kipi&CO EU-Голдринн
766 10 Sep 2014 05:38 875.11M 2588296.2 tsukostyle EU-Frostmane
767 03 Oct 2014 05:38 860.04M 2543334.4 Persevere US-Lightbringer
768 23 Sep 2014 05:38 861.97M 2546759.6 Hot guild US-Stormrage
769 30 Sep 2014 05:38 882.82M 2607433.1 Down For Life US-Uldaman
770 09 Oct 2014 05:38 817.18M 2412054.1 Incinerate EU-Blackmoore
771 25 Sep 2014 05:38 888.02M 2620647.3 evolution EU-Kael'thas
772 10 Oct 2014 05:38 873.87M 2578831.7 Entropy EU-Bronzebeard
773 18 Sep 2014 05:38 860.59M 2539090.3 How I Met My Ranking EU-Eredar
774 03 Oct 2014 05:39 839.03M 2472850.1 Haven US-Mal'Ganis
775 11 Sep 2014 05:39 860.48M 2534071.5 Big Crits 10M US-Sen'jin
776 17 Sep 2014 05:39 889.77M 2620278.8 Honorbound EU-Moonglade
777 11 Sep 2014 05:39 874.61M 2575413.4 Whatever EU-Draenor
778 08 Oct 2014 05:39 877.35M 2583147.1 Orden der Wächter EU-Blackrock
779 15 Sep 2014 05:39 807.94M 2378450.8 хилюйопт EU-Свежеватель Душ
780 09 Sep 2014 05:39 879.72M 2589272.0 Cookie Takers US-Burning Legion
781 15 Sep 2014 05:39 857.99M 2524126.4 Requiem der Klingen EU-Forscherliga
782 30 Sep 2014 05:39 861.45M 2533926.5 Continuity US-Sargeras
783 08 Oct 2014 05:40 814.61M 2395534.1 Zephyr EU-Elune
784 02 Oct 2014 05:40 870.06M 2557312.2 The Source US-Laughing Skull
785 25 Sep 2014 05:40 880.45M 2585878.2 ОРДА СМЕРТИ EU-Ткач Смерти
786 11 Sep 2014 05:40 861.46M 2527980.3 zzz EU-Гордунни
787 11 Sep 2014 05:40 861.46M 2527817.1 брым EU-Гордунни
788 14 Sep 2014 05:40 823.53M 2415083.2 FA Logs EU-Nozdormu
789 10 Sep 2014 05:41 819.73M 2401499.5 Minel Macil EU-Antonidas
790 01 Oct 2014 05:41 862.11M 2524276.6 The Last Try EU-Throk'Feroth
791 14 Oct 2014 05:41 834.12M 2442008.9 La flamme d anor EU-Khaz Modan
792 17 Sep 2014 05:41 869.29M 2544797.6 Night Conquers Day EU-Gorgonnash
793 08 Sep 2014 05:41 861.25M 2520016.7 Tranquility EU-Aerie Peak
794 24 Sep 2014 05:41 860.78M 2518630.6 Ave Letum EU-Antonidas
795 25 Sep 2014 05:42 894.67M 2614530.1 Antics EU-Stormscale
796 18 Sep 2014 05:42 872.70M 2550292.2 TrillipuT EU-Разувий
797 02 Oct 2014 05:42 889.75M 2599200.7 Syrilock EU-Silvermoon
798 08 Oct 2014 05:42 887.28M 2589346.9 Omnicide EU-Ravencrest
799 10 Sep 2014 05:42 860.04M 2509769.1 Prideless US-Proudmoore
800 13 Sep 2014 05:42 866.35M 2527863.6 Liberty EU-Голдринн

Please do not close the page with the ad you want to report.

I've posted a guide on how to report misbehaving ads on the forum. Please follow the instructions and help make the internet a safer place. Thanks for you time.